sensor_id;sensor_type;location;lat;lon;timestamp;pressure;altitude;pressure_sealevel;temperature;humidity
64023;BME280;50264;52.088;5.296;2023-01-25T00:00:33;103789.00000000001;;;1.91;87.41
64023;BME280;50264;52.088;5.296;2023-01-25T00:02:10;103788.00000000001;;;1.93;88.29
64023;BME280;50264;52.088;5.296;2023-01-25T00:05:22;103784.99999999999;;;1.82;89.01
64023;BME280;50264;52.088;5.296;2023-01-25T00:06:59;103780.0;;;1.79;87.81
64023;BME280;50264;52.088;5.296;2023-01-25T00:08:37;103778.0;;;1.85;87.9
64023;BME280;50264;52.088;5.296;2023-01-25T00:10:14;103768.0;;;1.74;88.15
64023;BME280;50264;52.088;5.296;2023-01-25T00:13:29;103767.0;;;1.75;87.56
64023;BME280;50264;52.088;5.296;2023-01-25T00:15:06;103770.0;;;1.83;87.36
64023;BME280;50264;52.088;5.296;2023-01-25T00:16:42;103771.0;;;1.8;87.64
64023;BME280;50264;52.088;5.296;2023-01-25T00:19:57;103767.0;;;1.79;87.3
64023;BME280;50264;52.088;5.296;2023-01-25T00:21:34;103766.00000000001;;;1.79;86.63
64023;BME280;50264;52.088;5.296;2023-01-25T00:23:10;103765.00000000001;;;1.84;86.55
64023;BME280;50264;52.088;5.296;2023-01-25T00:24:46;103768.0;;;1.75;87.34
64023;BME280;50264;52.088;5.296;2023-01-25T00:27:58;103761.99999999999;;;1.76;87.2
64023;BME280;50264;52.088;5.296;2023-01-25T00:29:34;103763.00000000001;;;1.72;86.99
64023;BME280;50264;52.088;5.296;2023-01-25T00:31:15;103759.99999999999;;;1.66;87.14
64023;BME280;50264;52.088;5.296;2023-01-25T00:34:45;103755.0;;;1.69;87.44
64023;BME280;50264;52.088;5.296;2023-01-25T00:36:40;103757.0;;;1.74;87.08
64023;BME280;50264;52.088;5.296;2023-01-25T00:38:26;103754.0;;;1.87;87.59
64023;BME280;50264;52.088;5.296;2023-01-25T00:40:07;103755.0;;;1.77;86.19
64023;BME280;50264;52.088;5.296;2023-01-25T00:41:45;103754.0;;;1.74;87.25
64023;BME280;50264;52.088;5.296;2023-01-25T00:44:57;103753.0;;;1.7;86.84
64023;BME280;50264;52.088;5.296;2023-01-25T00:46:34;103753.0;;;1.67;88.46
64023;BME280;50264;52.088;5.296;2023-01-25T00:48:11;103747.0;;;1.64;87.5
64023;BME280;50264;52.088;5.296;2023-01-25T00:51:23;103747.0;;;1.62;87.92
64023;BME280;50264;52.088;5.296;2023-01-25T00:53:00;103744.0;;;1.61;88.34
64023;BME280;50264;52.088;5.296;2023-01-25T00:54:36;103744.0;;;1.63;88.24
64023;BME280;50264;52.088;5.296;2023-01-25T00:56:14;103741.00000000001;;;1.62;88.04
64023;BME280;50264;52.088;5.296;2023-01-25T00:59:27;103745.0;;;1.64;88.06
64023;BME280;50264;52.088;5.296;2023-01-25T01:01:03;103744.0;;;1.67;87.55
64023;BME280;50264;52.088;5.296;2023-01-25T01:02:39;103741.00000000001;;;1.61;87.74
64023;BME280;50264;52.088;5.296;2023-01-25T01:05:58;103741.00000000001;;;1.57;87.93
64023;BME280;50264;52.088;5.296;2023-01-25T01:07:36;103734.99999999999;;;1.58;87.34
64023;BME280;50264;52.088;5.296;2023-01-25T01:09:15;103738.00000000001;;;1.59;87.66
64023;BME280;50264;52.088;5.296;2023-01-25T01:10:58;103734.99999999999;;;1.63;87.77
64023;BME280;50264;52.088;5.296;2023-01-25T01:14:10;103744.0;;;1.64;86.88
64023;BME280;50264;52.088;5.296;2023-01-25T01:15:47;103740.00000000001;;;1.71;87.6
64023;BME280;50264;52.088;5.296;2023-01-25T01:17:24;103740.00000000001;;;1.63;87.97
64023;BME280;50264;52.088;5.296;2023-01-25T01:20:37;103739.00000000001;;;1.69;88.46
64023;BME280;50264;52.088;5.296;2023-01-25T01:22:13;103738.00000000001;;;1.68;87.92
64023;BME280;50264;52.088;5.296;2023-01-25T01:23:49;103736.99999999999;;;1.68;87.92
64023;BME280;50264;52.088;5.296;2023-01-25T01:25:25;103740.00000000001;;;1.77;88.24
64023;BME280;50264;52.088;5.296;2023-01-25T01:28:38;103740.00000000001;;;1.68;87.68
64023;BME280;50264;52.088;5.296;2023-01-25T01:30:16;103734.99999999999;;;1.71;88.14
64023;BME280;50264;52.088;5.296;2023-01-25T01:31:53;103740.00000000001;;;1.71;88.22
64023;BME280;50264;52.088;5.296;2023-01-25T01:35:06;103732.0;;;1.6;88.36
64023;BME280;50264;52.088;5.296;2023-01-25T01:36:43;103738.00000000001;;;1.56;88.41
64023;BME280;50264;52.088;5.296;2023-01-25T01:38:20;103740.00000000001;;;1.53;88.65
64023;BME280;50264;52.088;5.296;2023-01-25T01:41:33;103734.99999999999;;;1.75;89.08
64023;BME280;50264;52.088;5.296;2023-01-25T01:43:16;103733.0;;;1.71;88.2
64023;BME280;50264;52.088;5.296;2023-01-25T01:44:53;103734.99999999999;;;1.75;88.03
64023;BME280;50264;52.088;5.296;2023-01-25T01:46:32;103732.0;;;1.83;87.23
64023;BME280;50264;52.088;5.296;2023-01-25T01:49:54;103732.0;;;1.67;86.77
64023;BME280;50264;52.088;5.296;2023-01-25T01:51:43;103732.0;;;1.5;85.76
64023;BME280;50264;52.088;5.296;2023-01-25T01:53:21;103730.0;;;1.45;86.52
64023;BME280;50264;52.088;5.296;2023-01-25T01:55:02;103730.0;;;1.57;87.44
64023;BME280;50264;52.088;5.296;2023-01-25T01:58:27;103724.0;;;1.43;87.51
64023;BME280;50264;52.088;5.296;2023-01-25T02:00:10;103722.0;;;1.43;88.88
64023;BME280;50264;52.088;5.296;2023-01-25T02:01:49;103724.0;;;1.32;88.24
64023;BME280;50264;52.088;5.296;2023-01-25T02:03:27;103726.0;;;1.31;88.82
64023;BME280;50264;52.088;5.296;2023-01-25T02:06:49;103724.0;;;1.28;88.58
64023;BME280;50264;52.088;5.296;2023-01-25T02:08:31;103721.0;;;1.24;88.89
64023;BME280;50264;52.088;5.296;2023-01-25T02:10:10;103723.0;;;1.27;88.78
64023;BME280;50264;52.088;5.296;2023-01-25T02:11:50;103721.0;;;1.27;88.13
64023;BME280;50264;52.088;5.296;2023-01-25T02:15:06;103717.0;;;1.3;89.27
64023;BME280;50264;52.088;5.296;2023-01-25T02:16:42;103715.00000000001;;;1.44;88.48
64023;BME280;50264;52.088;5.296;2023-01-25T02:18:19;103717.0;;;1.44;85.6
64023;BME280;50264;52.088;5.296;2023-01-25T02:19:59;103709.99999999999;;;1.49;86.97
64023;BME280;50264;52.088;5.296;2023-01-25T02:23:24;103709.99999999999;;;1.43;86.47
64023;BME280;50264;52.088;5.296;2023-01-25T02:25:06;103706.0;;;1.44;87.6
64023;BME280;50264;52.088;5.296;2023-01-25T02:26:43;103708.99999999999;;;1.36;87.95
64023;BME280;50264;52.088;5.296;2023-01-25T02:28:23;103714.00000000001;;;1.29;87.67
64023;BME280;50264;52.088;5.296;2023-01-25T02:31:43;103706.0;;;1.18;87.3
64023;BME280;50264;52.088;5.296;2023-01-25T02:33:22;103705.0;;;1.22;88.17
64023;BME280;50264;52.088;5.296;2023-01-25T02:34:58;103703.0;;;1.2;87.5
64023;BME280;50264;52.088;5.296;2023-01-25T02:36:34;103704.0;;;1.21;87.43
64023;BME280;50264;52.088;5.296;2023-01-25T02:39:51;103706.0;;;1.18;87.5
64023;BME280;50264;52.088;5.296;2023-01-25T02:41:31;103701.0;;;1.18;87.51
64023;BME280;50264;52.088;5.296;2023-01-25T02:43:10;103701.0;;;1.2;87.99
64023;BME280;50264;52.088;5.296;2023-01-25T02:46:28;103697.0;;;1.19;87.14
64023;BME280;50264;52.088;5.296;2023-01-25T02:48:05;103694.0;;;1.22;88.38
64023;BME280;50264;52.088;5.296;2023-01-25T02:49:41;103697.0;;;1.34;88.06
64023;BME280;50264;52.088;5.296;2023-01-25T02:51:17;103696.0;;;1.22;87.69
64023;BME280;50264;52.088;5.296;2023-01-25T02:54:31;103696.0;;;1.28;87.74
64023;BME280;50264;52.088;5.296;2023-01-25T02:56:08;103698.0;;;1.28;87.72
64023;BME280;50264;52.088;5.296;2023-01-25T02:57:44;103693.0;;;1.2;88.5
64023;BME280;50264;52.088;5.296;2023-01-25T03:00:57;103689.00000000001;;;1.12;89.23
64023;BME280;50264;52.088;5.296;2023-01-25T03:02:35;103683.99999999999;;;1.08;90.06
64023;BME280;50264;52.088;5.296;2023-01-25T03:04:11;103680.0;;;1.16;90.24
64023;BME280;50264;52.088;5.296;2023-01-25T03:07:24;103680.0;;;1.29;89.31
64023;BME280;50264;52.088;5.296;2023-01-25T03:09:01;103679.0;;;1.28;88.36
64023;BME280;50264;52.088;5.296;2023-01-25T03:10:38;103677.0;;;1.29;88.67
64023;BME280;50264;52.088;5.296;2023-01-25T03:12:14;103673.0;;;1.44;88.27
64023;BME280;50264;52.088;5.296;2023-01-25T03:15:27;103676.0;;;1.42;86.98
64023;BME280;50264;52.088;5.296;2023-01-25T03:17:03;103676.0;;;1.31;87.79
64023;BME280;50264;52.088;5.296;2023-01-25T03:18:41;103672.0;;;1.29;88.06
64023;BME280;50264;52.088;5.296;2023-01-25T03:21:53;103675.0;;;1.36;87.7
64023;BME280;50264;52.088;5.296;2023-01-25T03:23:30;103675.0;;;1.19;87.19
64023;BME280;50264;52.088;5.296;2023-01-25T03:25:07;103673.0;;;1.31;88.66
64023;BME280;50264;52.088;5.296;2023-01-25T03:27:17;103669.0;;;1.19;88.42
64023;BME280;50264;52.088;5.296;2023-01-25T03:28:53;103665.00000000001;;;1.12;89.55
64023;BME280;50264;52.088;5.296;2023-01-25T03:32:06;103664.00000000001;;;1.3;88.87
64023;BME280;50264;52.088;5.296;2023-01-25T03:33:44;103664.00000000001;;;1.29;88.62
64023;BME280;50264;52.088;5.296;2023-01-25T03:35:21;103656.0;;;1.31;88.68
64023;BME280;50264;52.088;5.296;2023-01-25T03:38:33;103657.0;;;1.21;88.4
64023;BME280;50264;52.088;5.296;2023-01-25T03:40:11;103651.0;;;1.26;88.74
64023;BME280;50264;52.088;5.296;2023-01-25T03:41:48;103650.0;;;1.43;87.84
64023;BME280;50264;52.088;5.296;2023-01-25T03:45:00;103642.0;;;1.47;88.64
64023;BME280;50264;52.088;5.296;2023-01-25T03:46:36;103640.00000000001;;;1.54;88.13
64023;BME280;50264;52.088;5.296;2023-01-25T03:48:12;103633.99999999999;;;1.55;87.53
64023;BME280;50264;52.088;5.296;2023-01-25T03:49:48;103634.99999999999;;;1.4;88.17
64023;BME280;50264;52.088;5.296;2023-01-25T03:53:06;103630.0;;;1.3;88.59
64023;BME280;50264;52.088;5.296;2023-01-25T03:54:42;103629.0;;;1.23;87.79
64023;BME280;50264;52.088;5.296;2023-01-25T03:56:19;103626.0;;;1.15;87.71
64023;BME280;50264;52.088;5.296;2023-01-25T03:59:31;103632.0;;;1.13;87.48
64023;BME280;50264;52.088;5.296;2023-01-25T04:01:08;103639.00000000001;;;1.13;87.87
64023;BME280;50264;52.088;5.296;2023-01-25T04:02:44;103640.00000000001;;;1.08;87.39
64023;BME280;50264;52.088;5.296;2023-01-25T04:05:57;103633.99999999999;;;1.25;87.34
64023;BME280;50264;52.088;5.296;2023-01-25T04:07:33;103638.00000000001;;;1.16;87.61
64023;BME280;50264;52.088;5.296;2023-01-25T04:09:09;103633.99999999999;;;1.19;88.49
64023;BME280;50264;52.088;5.296;2023-01-25T04:10:49;103631.0;;;1.23;88.21
64023;BME280;50264;52.088;5.296;2023-01-25T04:14:02;103629.0;;;1.3;87.6
64023;BME280;50264;52.088;5.296;2023-01-25T04:15:38;103632.0;;;1.23;87.78
64023;BME280;50264;52.088;5.296;2023-01-25T04:17:14;103636.99999999999;;;1.11;88.02
64023;BME280;50264;52.088;5.296;2023-01-25T04:20:27;103632.0;;;1.05;88.57
64023;BME280;50264;52.088;5.296;2023-01-25T04:22:04;103632.0;;;1.1;88.68
64023;BME280;50264;52.088;5.296;2023-01-25T04:23:41;103632.0;;;1.12;88.9
64023;BME280;50264;52.088;5.296;2023-01-25T04:26:53;103633.0;;;1.1;88.63
64023;BME280;50264;52.088;5.296;2023-01-25T04:28:31;103632.0;;;1.05;88.96
64023;BME280;50264;52.088;5.296;2023-01-25T04:30:09;103631.0;;;1.16;89.43
64023;BME280;50264;52.088;5.296;2023-01-25T04:31:45;103627.0;;;1.07;88.56
64023;BME280;50264;52.088;5.296;2023-01-25T04:34:58;103625.0;;;1.12;88.92
64023;BME280;50264;52.088;5.296;2023-01-25T04:36:34;103619.0;;;1.07;88.43
64023;BME280;50264;52.088;5.296;2023-01-25T04:38:11;103617.0;;;1.08;88.75
64023;BME280;50264;52.088;5.296;2023-01-25T04:41:28;103615.00000000001;;;1.13;89.26
64023;BME280;50264;52.088;5.296;2023-01-25T04:43:05;103614.00000000001;;;1.2;87.77
64023;BME280;50264;52.088;5.296;2023-01-25T04:44:41;103613.00000000001;;;1.05;87.39
64023;BME280;50264;52.088;5.296;2023-01-25T04:46:17;103605.0;;;0.97;87.47
64023;BME280;50264;52.088;5.296;2023-01-25T04:49:33;103603.0;;;1.04;88.07
64023;BME280;50264;52.088;5.296;2023-01-25T04:51:09;103598.0;;;1.04;87.7
64023;BME280;50264;52.088;5.296;2023-01-25T04:52:45;103597.0;;;1.03;87.99
64023;BME280;50264;52.088;5.296;2023-01-25T04:55:57;103596.0;;;1.11;88.55
64023;BME280;50264;52.088;5.296;2023-01-25T04:57:33;103596.0;;;1.26;88.17
64023;BME280;50264;52.088;5.296;2023-01-25T04:59:10;103595.0;;;1.1;88.22
64023;BME280;50264;52.088;5.296;2023-01-25T05:02:22;103595.0;;;1.11;88.47
64023;BME280;50264;52.088;5.296;2023-01-25T05:03:58;103595.0;;;1.12;87.86
64023;BME280;50264;52.088;5.296;2023-01-25T05:05:34;103589.00000000001;;;1.12;88.24
64023;BME280;50264;52.088;5.296;2023-01-25T05:10:23;103595.0;;;1.08;88.93
64023;BME280;50264;52.088;5.296;2023-01-25T05:11:59;103601.0;;;1.07;87.9
64023;BME280;50264;52.088;5.296;2023-01-25T05:13:35;103600.0;;;0.98;87.78
64023;BME280;50264;52.088;5.296;2023-01-25T05:16:48;103599.0;;;0.99;88.21
64023;BME280;50264;52.088;5.296;2023-01-25T05:18:25;103598.0;;;1.0;87.07
64023;BME280;50264;52.088;5.296;2023-01-25T05:20:01;103592.0;;;1.02;87.35
64023;BME280;50264;52.088;5.296;2023-01-25T05:23:49;103595.0;;;1.0;86.81
64023;BME280;50264;52.088;5.296;2023-01-25T05:29:03;103589.00000000001;;;1.23;86.92
64023;BME280;50264;52.088;5.296;2023-01-25T05:30:40;103584.99999999999;;;1.2;86.59
64023;BME280;50264;52.088;5.296;2023-01-25T05:32:17;103583.0;;;1.19;86.2
64023;BME280;50264;52.088;5.296;2023-01-25T05:35:31;103583.0;;;1.08;87.56
64023;BME280;50264;52.088;5.296;2023-01-25T05:37:10;103582.0;;;0.96;86.88
64023;BME280;50264;52.088;5.296;2023-01-25T05:38:47;103580.0;;;1.13;88.13
64023;BME280;50264;52.088;5.296;2023-01-25T05:41:59;103580.0;;;1.08;86.93
64023;BME280;50264;52.088;5.296;2023-01-25T05:43:35;103583.0;;;1.01;86.89
64023;BME280;50264;52.088;5.296;2023-01-25T05:45:11;103580.0;;;1.02;87.35
64023;BME280;50264;52.088;5.296;2023-01-25T05:48:25;103582.0;;;0.91;87.66
64023;BME280;50264;52.088;5.296;2023-01-25T05:50:01;103583.99999999999;;;0.83;86.62
64023;BME280;50264;52.088;5.296;2023-01-25T05:51:38;103580.0;;;0.97;88.19
64023;BME280;50264;52.088;5.296;2023-01-25T05:53:16;103583.99999999999;;;0.9;87.21
64023;BME280;50264;52.088;5.296;2023-01-25T05:56:28;103583.0;;;0.96;88.2
64023;BME280;50264;52.088;5.296;2023-01-25T05:58:05;103588.00000000001;;;0.98;87.47
64023;BME280;50264;52.088;5.296;2023-01-25T05:59:41;103589.00000000001;;;0.94;87.42
64023;BME280;50264;52.088;5.296;2023-01-25T06:02:59;103589.00000000001;;;0.86;86.54
64023;BME280;50264;52.088;5.296;2023-01-25T06:04:35;103589.00000000001;;;0.93;87.75
64023;BME280;50264;52.088;5.296;2023-01-25T06:06:12;103589.00000000001;;;0.87;87.5
64023;BME280;50264;52.088;5.296;2023-01-25T06:09:26;103586.99999999999;;;0.86;87.37
64023;BME280;50264;52.088;5.296;2023-01-25T06:11:05;103592.0;;;0.88;88.11
64023;BME280;50264;52.088;5.296;2023-01-25T06:12:42;103598.0;;;0.92;87.45
64023;BME280;50264;52.088;5.296;2023-01-25T06:14:18;103604.0;;;0.89;87.2
64023;BME280;50264;52.088;5.296;2023-01-25T06:17:32;103602.0;;;0.83;87.82
64023;BME280;50264;52.088;5.296;2023-01-25T06:19:11;103602.0;;;0.89;87.45
64023;BME280;50264;52.088;5.296;2023-01-25T06:20:48;103594.0;;;0.93;88.3
64023;BME280;50264;52.088;5.296;2023-01-25T06:24:01;103597.0;;;0.86;87.46
64023;BME280;50264;52.088;5.296;2023-01-25T06:25:37;103593.0;;;0.87;87.82
64023;BME280;50264;52.088;5.296;2023-01-25T06:27:13;103592.0;;;0.9;88.09
64023;BME280;50264;52.088;5.296;2023-01-25T06:28:49;103592.0;;;0.89;87.22
64023;BME280;50264;52.088;5.296;2023-01-25T06:32:02;103595.0;;;0.93;87.91
64023;BME280;50264;52.088;5.296;2023-01-25T06:33:39;103599.0;;;0.93;86.81
64023;BME280;50264;52.088;5.296;2023-01-25T06:35:16;103600.0;;;0.86;87.0
64023;BME280;50264;52.088;5.296;2023-01-25T06:38:28;103603.0;;;0.85;87.04
64023;BME280;50264;52.088;5.296;2023-01-25T06:40:07;103596.0;;;0.83;87.4
64023;BME280;50264;52.088;5.296;2023-01-25T06:41:46;103600.0;;;0.89;87.84
64023;BME280;50264;52.088;5.296;2023-01-25T06:44:58;103598.0;;;0.84;87.16
64023;BME280;50264;52.088;5.296;2023-01-25T06:46:34;103592.0;;;0.97;87.46
64023;BME280;50264;52.088;5.296;2023-01-25T06:48:10;103595.0;;;0.96;87.37
64023;BME280;50264;52.088;5.296;2023-01-25T06:49:46;103589.00000000001;;;1.17;87.88
64023;BME280;50264;52.088;5.296;2023-01-25T06:52:59;103583.99999999999;;;1.3;86.75
64023;BME280;50264;52.088;5.296;2023-01-25T06:54:35;103590.00000000001;;;1.23;86.26
64023;BME280;50264;52.088;5.296;2023-01-25T06:56:13;103594.0;;;1.04;85.89
64023;BME280;50264;52.088;5.296;2023-01-25T06:59:26;103594.0;;;0.94;85.84
64023;BME280;50264;52.088;5.296;2023-01-25T07:01:04;103589.00000000001;;;1.06;86.79
64023;BME280;50264;52.088;5.296;2023-01-25T07:02:42;103592.0;;;1.15;86.76
64023;BME280;50264;52.088;5.296;2023-01-25T07:05:57;103588.00000000001;;;0.94;86.61
64023;BME280;50264;52.088;5.296;2023-01-25T07:07:35;103584.99999999999;;;0.86;87.4
64023;BME280;50264;52.088;5.296;2023-01-25T07:09:13;103581.0;;;0.89;86.89
64023;BME280;50264;52.088;5.296;2023-01-25T07:10:53;103578.0;;;0.95;86.77
64023;BME280;50264;52.088;5.296;2023-01-25T07:14:06;103574.0;;;0.88;87.44
64023;BME280;50264;52.088;5.296;2023-01-25T07:15:42;103567.0;;;0.79;87.89
64023;BME280;50264;52.088;5.296;2023-01-25T07:17:18;103567.0;;;1.01;87.78
64023;BME280;50264;52.088;5.296;2023-01-25T07:20:30;103563.00000000001;;;0.95;86.95
64023;BME280;50264;52.088;5.296;2023-01-25T07:22:06;103563.00000000001;;;0.89;86.72
64023;BME280;50264;52.088;5.296;2023-01-25T07:23:43;103567.0;;;0.96;86.12
64023;BME280;50264;52.088;5.296;2023-01-25T07:25:19;103571.0;;;1.07;86.34
64023;BME280;50264;52.088;5.296;2023-01-25T07:28:32;103568.0;;;0.84;86.74
64023;BME280;50264;52.088;5.296;2023-01-25T07:30:10;103567.0;;;0.88;86.9
64023;BME280;50264;52.088;5.296;2023-01-25T07:31:45;103569.0;;;0.76;87.26
64023;BME280;50264;52.088;5.296;2023-01-25T07:34:59;103570.0;;;0.77;87.6
64023;BME280;50264;52.088;5.296;2023-01-25T07:36:36;103570.0;;;0.59;87.82
64023;BME280;50264;52.088;5.296;2023-01-25T07:38:12;103574.0;;;0.57;88.48
64023;BME280;50264;52.088;5.296;2023-01-25T07:41:26;103567.0;;;0.61;87.65
64023;BME280;50264;52.088;5.296;2023-01-25T07:43:03;103569.0;;;0.8;87.86
64023;BME280;50264;52.088;5.296;2023-01-25T07:44:38;103566.00000000001;;;0.81;87.81
64023;BME280;50264;52.088;5.296;2023-01-25T07:46:16;103568.0;;;0.71;87.36
64023;BME280;50264;52.088;5.296;2023-01-25T07:49:29;103563.00000000001;;;0.66;87.98
64023;BME280;50264;52.088;5.296;2023-01-25T07:51:21;103559.99999999999;;;0.71;88.62
64023;BME280;50264;52.088;5.296;2023-01-25T07:52:59;103551.0;;;0.88;86.95
64023;BME280;50264;52.088;5.296;2023-01-25T07:54:35;103554.0;;;0.94;86.92
64023;BME280;50264;52.088;5.296;2023-01-25T07:57:47;103550.0;;;0.9;87.32
64023;BME280;50264;52.088;5.296;2023-01-25T07:59:24;103552.0;;;0.8;86.99
64023;BME280;50264;52.088;5.296;2023-01-25T08:01:08;103548.0;;;0.92;87.16
64023;BME280;50264;52.088;5.296;2023-01-25T08:04:25;103545.0;;;0.91;86.65
64023;BME280;50264;52.088;5.296;2023-01-25T08:06:04;103542.0;;;0.88;86.4
64023;BME280;50264;52.088;5.296;2023-01-25T08:07:41;103541.00000000001;;;0.88;87.25
64023;BME280;50264;52.088;5.296;2023-01-25T08:09:19;103534.99999999999;;;0.93;87.84
64023;BME280;50264;52.088;5.296;2023-01-25T08:12:31;103529.0;;;0.87;86.66
64023;BME280;50264;52.088;5.296;2023-01-25T08:14:10;103533.99999999999;;;0.88;87.31
64023;BME280;50264;52.088;5.296;2023-01-25T08:15:52;103531.0;;;0.88;87.37
64023;BME280;50264;52.088;5.296;2023-01-25T08:19:09;103536.99999999999;;;0.81;86.17
64023;BME280;50264;52.088;5.296;2023-01-25T08:20:46;103539.00000000001;;;1.04;86.6
64023;BME280;50264;52.088;5.296;2023-01-25T08:22:23;103542.0;;;0.99;84.91
64023;BME280;50264;52.088;5.296;2023-01-25T08:24:02;103543.0;;;0.98;85.96
64023;BME280;50264;52.088;5.296;2023-01-25T08:27:15;103539.00000000001;;;0.96;86.43
64023;BME280;50264;52.088;5.296;2023-01-25T08:28:53;103541.00000000001;;;0.99;87.12
64023;BME280;50264;52.088;5.296;2023-01-25T08:30:29;103533.0;;;0.97;87.09
64023;BME280;50264;52.088;5.296;2023-01-25T08:33:45;103538.00000000001;;;1.06;86.86
64023;BME280;50264;52.088;5.296;2023-01-25T08:35:22;103530.0;;;1.12;86.39
64023;BME280;50264;52.088;5.296;2023-01-25T08:36:58;103539.00000000001;;;1.12;87.4
64023;BME280;50264;52.088;5.296;2023-01-25T08:38:36;103540.00000000001;;;1.07;86.4
64023;BME280;50264;52.088;5.296;2023-01-25T08:41:54;103542.0;;;0.98;86.91
64023;BME280;50264;52.088;5.296;2023-01-25T08:43:30;103543.0;;;0.85;86.14
64023;BME280;50264;52.088;5.296;2023-01-25T08:45:07;103532.0;;;0.95;87.38
64023;BME280;50264;52.088;5.296;2023-01-25T08:48:21;103528.0;;;0.92;86.79
64023;BME280;50264;52.088;5.296;2023-01-25T08:51:33;103521.0;;;0.95;87.67
64023;BME280;50264;52.088;5.296;2023-01-25T08:53:10;103524.0;;;0.96;87.18
64023;BME280;50264;52.088;5.296;2023-01-25T08:56:23;103517.0;;;0.97;87.76
64023;BME280;50264;52.088;5.296;2023-01-25T08:57:59;103518.0;;;0.88;86.72
64023;BME280;50264;52.088;5.296;2023-01-25T08:59:35;103508.99999999999;;;0.98;87.93
64023;BME280;50264;52.088;5.296;2023-01-25T09:02:49;103503.0;;;0.98;88.38
64023;BME280;50264;52.088;5.296;2023-01-25T09:04:27;103503.0;;;1.04;88.58
64023;BME280;50264;52.088;5.296;2023-01-25T09:06:04;103508.99999999999;;;1.03;87.48
64023;BME280;50264;52.088;5.296;2023-01-25T09:09:17;103508.0;;;0.94;86.58
64023;BME280;50264;52.088;5.296;2023-01-25T09:10:53;103507.0;;;1.03;87.75
64023;BME280;50264;52.088;5.296;2023-01-25T09:12:30;103509.99999999999;;;1.19;86.83
64023;BME280;50264;52.088;5.296;2023-01-25T09:14:07;103507.0;;;1.11;86.71
64023;BME280;50264;52.088;5.296;2023-01-25T09:17:20;103502.0;;;1.19;86.77
64023;BME280;50264;52.088;5.296;2023-01-25T09:18:58;103505.0;;;1.18;85.12
64023;BME280;50264;52.088;5.296;2023-01-25T09:20:37;103495.0;;;1.21;85.7
64023;BME280;50264;52.088;5.296;2023-01-25T09:23:51;103499.0;;;1.17;86.01
64023;BME280;50264;52.088;5.296;2023-01-25T09:25:29;103505.0;;;1.16;86.31
64023;BME280;50264;52.088;5.296;2023-01-25T09:27:05;103497.0;;;0.91;86.37
64023;BME280;50264;52.088;5.296;2023-01-25T09:28:42;103499.0;;;1.0;86.95
64023;BME280;50264;52.088;5.296;2023-01-25T09:31:57;103496.0;;;0.96;87.48
64023;BME280;50264;52.088;5.296;2023-01-25T09:33:35;103499.0;;;0.95;88.22
64023;BME280;50264;52.088;5.296;2023-01-25T09:35:13;103500.0;;;1.07;87.59
64023;BME280;50264;52.088;5.296;2023-01-25T09:38:25;103497.0;;;1.0;86.87
64023;BME280;50264;52.088;5.296;2023-01-25T09:40:03;103502.0;;;1.1;85.73
64023;BME280;50264;52.088;5.296;2023-01-25T09:41:59;103505.0;;;1.12;85.7
64023;BME280;50264;52.088;5.296;2023-01-25T09:44:53;103499.0;;;1.16;84.89
64023;BME280;50264;52.088;5.296;2023-01-25T09:47:07;103490.00000000001;;;1.03;85.63
64023;BME280;50264;52.088;5.296;2023-01-25T09:48:56;103483.0;;;1.0;86.37
64023;BME280;50264;52.088;5.296;2023-01-25T09:50:51;103484.99999999999;;;0.86;86.68
64023;BME280;50264;52.088;5.296;2023-01-25T09:52:57;103486.99999999999;;;0.84;87.25
64023;BME280;50264;52.088;5.296;2023-01-25T09:54:43;103483.0;;;0.92;87.08
64023;BME280;50264;52.088;5.296;2023-01-25T09:56:23;103483.0;;;0.85;86.2
64023;BME280;50264;52.088;5.296;2023-01-25T09:58:03;103490.00000000001;;;0.77;87.75
64023;BME280;50264;52.088;5.296;2023-01-25T10:01:28;103490.00000000001;;;0.88;87.89
64023;BME280;50264;52.088;5.296;2023-01-25T10:03:14;103481.0;;;0.83;87.45
64023;BME280;50264;52.088;5.296;2023-01-25T10:04:56;103482.0;;;0.92;86.83
64023;BME280;50264;52.088;5.296;2023-01-25T10:06:39;103482.0;;;0.8;86.81
64023;BME280;50264;52.088;5.296;2023-01-25T10:10:07;103478.0;;;0.79;86.49
64023;BME280;50264;52.088;5.296;2023-01-25T10:11:47;103470.0;;;0.8;87.47
64023;BME280;50264;52.088;5.296;2023-01-25T10:13:23;103471.0;;;0.86;87.55
64023;BME280;50264;52.088;5.296;2023-01-25T10:15:01;103465.00000000001;;;0.92;87.57
64023;BME280;50264;52.088;5.296;2023-01-25T10:16:56;103465.00000000001;;;0.94;87.15
64023;BME280;50264;52.088;5.296;2023-01-25T10:20:34;103465.00000000001;;;0.87;86.15
64023;BME280;50264;52.088;5.296;2023-01-25T10:22:18;103455.0;;;0.72;86.2
64023;BME280;50264;52.088;5.296;2023-01-25T10:27:38;103450.0;;;0.67;87.46
64023;BME280;50264;52.088;5.296;2023-01-25T10:31:02;103445.0;;;0.7;86.78
64023;BME280;50264;52.088;5.296;2023-01-25T10:32:39;103442.0;;;0.62;87.37
64023;BME280;50264;52.088;5.296;2023-01-25T10:34:18;103446.0;;;0.61;87.36
64023;BME280;50264;52.088;5.296;2023-01-25T10:35:58;103440.00000000001;;;0.59;87.17
64023;BME280;50264;52.088;5.296;2023-01-25T10:39:14;103430.0;;;0.7;87.83
64023;BME280;50264;52.088;5.296;2023-01-25T10:40:55;103427.0;;;0.75;88.09
64023;BME280;50264;52.088;5.296;2023-01-25T10:42:49;103416.00000000001;;;0.86;87.52
64023;BME280;50264;52.088;5.296;2023-01-25T10:44:37;103418.0;;;0.7;87.12
64023;BME280;50264;52.088;5.296;2023-01-25T10:46:18;103415.00000000001;;;0.86;87.64
64023;BME280;50264;52.088;5.296;2023-01-25T10:49:41;103420.0;;;0.8;87.09
64023;BME280;50264;52.088;5.296;2023-01-25T10:51:28;103421.0;;;0.74;87.68
64023;BME280;50264;52.088;5.296;2023-01-25T10:53:21;103416.00000000001;;;0.69;86.84
64023;BME280;50264;52.088;5.296;2023-01-25T10:55:10;103408.99999999999;;;0.64;87.31
64023;BME280;50264;52.088;5.296;2023-01-25T10:56:51;103406.0;;;0.56;88.05
64023;BME280;50264;52.088;5.296;2023-01-25T11:00:22;103401.0;;;0.63;87.58